Iwojima, Iwo Jima Airport (RJAW)

NameIwo Jima Airport
CityIwojima
CountryJapan
ICAORJAW
IATAIWO
Altitude117 m
CoordinatesGoogle Map
Live Air TrafficLiveATC.net
METARRJAW 172300Z 30014KT 9999 BKN010 SCT100 22/18 Q1008 RMK 5CU010 3AC100 A2978
2020-01-17 23:00:00 Wind: West-Northwest (300°) 7.2 m/s - Visibility: > 10000 m - Temperature: 22 °C - Dew point: 18 °C - Humidity: 78.1% - Pressure: 1008 hPa

Sorry, no flights used the airport in this database.